createdAt,value
2018-12-14T00:00:27.786Z,4.00
2018-12-14T00:02:30.735Z,4.00
2018-12-14T00:04:33.772Z,4.00
2018-12-14T00:06:36.752Z,4.00
2018-12-14T00:08:39.672Z,4.00
2018-12-14T00:10:43.490Z,4.00
2018-12-14T00:12:46.402Z,4.00
2018-12-14T00:14:49.434Z,4.00
2018-12-14T00:16:53.338Z,4.00
2018-12-14T00:18:57.019Z,4.00
2018-12-14T00:20:59.931Z,4.00
2018-12-14T00:23:02.923Z,4.00
2018-12-14T00:25:05.885Z,4.00
2018-12-14T00:27:09.635Z,3.90
2018-12-14T00:29:12.650Z,3.90
2018-12-14T00:31:15.592Z,3.90
2018-12-14T00:33:18.507Z,3.90
2018-12-14T00:35:21.465Z,3.90
2018-12-14T00:37:24.382Z,3.80
2018-12-14T00:39:27.303Z,3.80
2018-12-14T00:41:30.323Z,3.80
2018-12-14T00:43:33.258Z,3.70
2018-12-14T00:45:36.188Z,3.70
2018-12-14T00:47:39.150Z,3.70
2018-12-14T00:49:42.089Z,3.70
2018-12-14T00:51:45.065Z,3.70
2018-12-14T00:53:48.089Z,3.60
2018-12-14T00:55:51.010Z,3.60
2018-12-14T00:57:53.916Z,3.60
2018-12-14T00:59:57.745Z,3.50
2018-12-14T01:02:00.684Z,3.50
2018-12-14T01:04:03.619Z,3.50
2018-12-14T01:06:06.667Z,3.50
2018-12-14T01:08:10.369Z,3.50
2018-12-14T01:10:14.050Z,3.40
2018-12-14T01:12:17.116Z,3.40
2018-12-14T01:14:20.116Z,3.40
2018-12-14T01:16:23.055Z,3.40
2018-12-14T01:18:26.218Z,3.40
2018-12-14T01:20:29.907Z,3.40
2018-12-14T01:22:33.594Z,3.40
2018-12-14T01:24:36.529Z,3.40
2018-12-14T01:26:39.443Z,3.40
2018-12-14T01:28:42.385Z,3.40
2018-12-14T01:30:45.326Z,3.40
2018-12-14T01:32:49.034Z,3.40
2018-12-14T01:34:52.841Z,3.50
2018-12-14T01:36:55.909Z,3.40
2018-12-14T01:38:58.909Z,3.40
2018-12-14T01:41:01.822Z,3.40
2018-12-14T01:43:04.873Z,3.40
2018-12-14T01:45:08.552Z,3.40
2018-12-14T01:47:11.561Z,3.40
2018-12-14T01:49:15.272Z,3.40
2018-12-14T01:51:18.191Z,3.30
2018-12-14T01:53:21.108Z,3.30
2018-12-14T01:55:24.080Z,3.30
2018-12-14T01:57:26.995Z,3.30
2018-12-14T01:59:29.919Z,3.30
2018-12-14T02:01:32.963Z,3.30
2018-12-14T02:03:36.535Z,3.30
2018-12-14T02:05:40.211Z,3.30
2018-12-14T02:07:43.279Z,3.20
2018-12-14T02:09:46.213Z,3.30
2018-12-14T02:11:49.886Z,3.30
2018-12-14T02:13:52.855Z,3.20
2018-12-14T02:15:55.881Z,3.30
2018-12-14T02:17:59.553Z,3.30
2018-12-14T02:20:02.539Z,3.30
2018-12-14T02:22:05.459Z,3.30
2018-12-14T02:24:08.376Z,3.30
2018-12-14T02:26:11.316Z,3.30
2018-12-14T02:28:15.891Z,3.30
2018-12-14T02:30:30.534Z,3.30
2018-12-14T02:32:33.484Z,3.30
2018-12-14T02:34:36.399Z,3.30
2018-12-14T02:36:39.379Z,3.30
2018-12-14T02:38:42.479Z,3.40
2018-12-14T02:40:45.505Z,3.30
2018-12-14T02:42:49.174Z,3.40
2018-12-14T02:44:52.221Z,3.30
2018-12-14T02:46:55.136Z,3.40
2018-12-14T02:48:59.517Z,3.40
2018-12-14T02:51:02.394Z,3.40
2018-12-14T02:53:05.316Z,3.40
2018-12-14T02:55:08.204Z,3.40
2018-12-14T02:57:11.843Z,3.40
2018-12-14T02:59:14.739Z,3.40
2018-12-14T03:01:17.603Z,3.40
2018-12-14T03:03:20.475Z,3.40
2018-12-14T03:05:23.367Z,3.40
2018-12-14T03:07:26.234Z,3.50
2018-12-14T03:09:29.130Z,3.50
2018-12-14T03:11:32.045Z,3.50
2018-12-14T03:13:34.948Z,3.50
2018-12-14T03:15:38.603Z,3.50
2018-12-14T03:17:41.491Z,3.50
2018-12-14T03:19:44.382Z,3.50
2018-12-14T03:21:47.327Z,3.50
2018-12-14T03:23:50.232Z,3.50
2018-12-14T03:25:53.119Z,3.50
2018-12-14T03:27:55.993Z,3.50
2018-12-14T03:29:58.892Z,3.50
2018-12-14T03:32:01.766Z,3.50
2018-12-14T03:34:04.636Z,3.40
2018-12-14T03:36:07.563Z,3.40
2018-12-14T03:38:11.540Z,3.40
2018-12-14T03:40:15.191Z,3.40
2018-12-14T03:42:18.067Z,3.30
2018-12-14T03:44:20.941Z,3.40
2018-12-14T03:46:24.595Z,3.40
2018-12-14T03:48:27.502Z,3.40
2018-12-14T03:50:30.378Z,3.40
2018-12-14T03:52:33.269Z,3.40
2018-12-14T03:54:36.120Z,3.40
2018-12-14T03:56:39.031Z,3.40
2018-12-14T03:58:42.667Z,3.40
2018-12-14T04:00:45.563Z,3.40
2018-12-14T04:02:48.430Z,3.50
2018-12-14T04:04:51.327Z,3.40
2018-12-14T04:06:54.227Z,3.40
2018-12-14T04:08:57.109Z,3.40
2018-12-14T04:11:00.083Z,3.40
2018-12-14T04:13:02.974Z,3.40
2018-12-14T04:15:06.814Z,3.40
2018-12-14T04:17:10.431Z,3.40
2018-12-14T04:19:13.368Z,3.40
2018-12-14T04:21:17.028Z,3.40
2018-12-14T04:23:19.910Z,3.40
2018-12-14T04:25:22.796Z,3.40
2018-12-14T04:27:25.766Z,3.40
2018-12-14T04:29:28.551Z,3.40
2018-12-14T04:31:31.462Z,3.40
2018-12-14T04:33:34.345Z,3.50
2018-12-14T04:35:37.226Z,3.50
2018-12-14T04:37:40.106Z,3.50
2018-12-14T04:39:42.984Z,3.50
2018-12-14T04:41:45.899Z,3.50
2018-12-14T04:43:49.535Z,3.50
2018-12-14T04:45:52.462Z,3.50
2018-12-14T04:47:56.101Z,3.50
2018-12-14T04:49:58.981Z,3.50
2018-12-14T04:52:01.918Z,3.50
2018-12-14T04:54:04.808Z,3.50
2018-12-14T04:56:08.486Z,3.50
2018-12-14T04:58:11.349Z,3.50
2018-12-14T05:00:14.229Z,3.50
2018-12-14T05:02:17.891Z,3.60
2018-12-14T05:04:20.865Z,3.50
2018-12-14T05:06:24.519Z,3.60
2018-12-14T05:08:27.401Z,3.50
2018-12-14T05:10:30.280Z,3.60
2018-12-14T05:12:33.206Z,3.60
2018-12-14T05:14:36.842Z,3.60
2018-12-14T05:16:39.739Z,3.60
2018-12-14T05:18:42.614Z,3.60
2018-12-14T05:20:45.494Z,3.60
2018-12-14T05:22:48.413Z,3.60
2018-12-14T05:24:52.053Z,3.60
2018-12-14T05:26:54.947Z,3.60
2018-12-14T05:28:57.830Z,3.60
2018-12-14T05:31:00.709Z,3.60
2018-12-14T05:33:03.594Z,3.60
2018-12-14T05:35:06.459Z,3.60
2018-12-14T05:37:09.345Z,3.60
2018-12-14T05:39:12.237Z,3.60
2018-12-14T05:41:15.215Z,3.60
2018-12-14T05:43:18.124Z,3.60
2018-12-14T05:45:20.978Z,3.60
2018-12-14T05:47:23.865Z,3.60
2018-12-14T05:49:41.562Z,3.50
2018-12-14T06:02:10.710Z,3.50
2018-12-14T06:12:26.728Z,3.20
2018-12-14T06:14:29.699Z,3.00
2018-12-14T06:16:32.682Z,3.10
2018-12-14T06:18:35.585Z,3.10
2018-12-14T06:20:39.223Z,3.10
2018-12-14T06:22:42.118Z,3.20
2018-12-14T06:24:45.755Z,3.20
2018-12-14T06:26:49.415Z,3.30
2018-12-14T06:28:52.347Z,3.30
2018-12-14T06:30:55.989Z,3.40
2018-12-14T06:32:58.886Z,3.30
2018-12-14T06:35:01.781Z,3.40
2018-12-14T06:37:05.140Z,3.40
2018-12-14T06:39:08.875Z,3.50
2018-12-14T06:41:11.851Z,3.50
2018-12-14T06:43:15.646Z,3.50
2018-12-14T06:45:18.484Z,3.50
2018-12-14T06:47:21.454Z,3.50
2018-12-14T06:49:25.090Z,3.50
2018-12-14T06:51:28.788Z,3.60
2018-12-14T06:53:33.249Z,3.60
2018-12-14T06:55:36.890Z,3.60
2018-12-14T06:57:39.766Z,3.60
2018-12-14T06:59:43.510Z,3.60
2018-12-14T07:01:46.390Z,3.60
2018-12-14T07:03:50.002Z,3.60
2018-12-14T07:05:52.871Z,3.60
2018-12-14T07:07:55.790Z,3.70
2018-12-14T07:09:59.493Z,3.70
2018-12-14T07:12:03.848Z,3.60
2018-12-14T07:14:07.487Z,3.60
2018-12-14T07:16:11.643Z,3.70
2018-12-14T07:18:14.530Z,3.70
2018-12-14T07:20:17.415Z,3.70
2018-12-14T07:22:20.314Z,3.70
2018-12-14T07:24:23.192Z,3.70
2018-12-14T07:26:26.059Z,3.70
2018-12-14T07:28:28.974Z,3.70
2018-12-14T07:30:31.959Z,3.70
2018-12-14T07:32:34.827Z,3.70
2018-12-14T07:34:38.526Z,3.70
2018-12-14T07:36:41.427Z,3.70
2018-12-14T07:38:48.099Z,3.70
2018-12-14T07:40:48.313Z,3.70
2018-12-14T07:42:51.214Z,3.70
2018-12-14T07:44:55.154Z,3.70
2018-12-14T07:46:58.010Z,3.70
2018-12-14T07:49:00.898Z,3.70
2018-12-14T07:51:03.775Z,3.70
2018-12-14T07:53:09.254Z,3.70
2018-12-14T07:55:10.310Z,3.70
2018-12-14T07:57:13.425Z,3.70
2018-12-14T07:59:17.059Z,3.70
2018-12-14T08:01:19.947Z,3.60
2018-12-14T08:03:22.814Z,3.70
2018-12-14T08:05:26.454Z,3.70
2018-12-14T08:07:30.845Z,3.70
2018-12-14T08:09:33.724Z,3.70
2018-12-14T08:11:36.763Z,3.60
2018-12-14T08:13:40.530Z,3.70
2018-12-14T08:15:43.460Z,3.70
2018-12-14T08:17:46.380Z,3.70
2018-12-14T08:19:49.824Z,3.70
2018-12-14T08:21:54.262Z,3.70
2018-12-14T08:23:57.287Z,3.70
2018-12-14T08:26:00.305Z,3.70
2018-12-14T08:28:03.943Z,3.70
2018-12-14T08:30:06.855Z,3.70
2018-12-14T08:32:09.747Z,3.70
2018-12-14T08:34:14.147Z,3.70
2018-12-14T08:36:17.244Z,3.70
2018-12-14T08:38:20.116Z,3.70
2018-12-14T08:40:22.979Z,3.70
2018-12-14T08:42:25.895Z,3.70
2018-12-14T08:44:29.858Z,3.70
2018-12-14T08:46:32.731Z,3.70
2018-12-14T08:48:35.750Z,3.70
2018-12-14T08:50:38.635Z,3.80
2018-12-14T08:52:41.515Z,3.80
2018-12-14T08:54:45.321Z,3.80
2018-12-14T08:56:48.258Z,3.80
2018-12-14T08:58:51.134Z,3.80
2018-12-14T09:00:54.035Z,3.80
2018-12-14T09:02:56.914Z,3.80
2018-12-14T09:04:59.795Z,3.80
2018-12-14T09:07:02.899Z,3.80
2018-12-14T09:09:06.019Z,3.80
2018-12-14T09:11:08.975Z,3.80
2018-12-14T09:13:11.888Z,3.80
2018-12-14T09:15:15.539Z,3.80
2018-12-14T09:17:18.407Z,3.80
2018-12-14T09:19:21.350Z,3.80
2018-12-14T09:21:25.003Z,3.80
2018-12-14T09:23:27.886Z,3.80
2018-12-14T09:25:30.778Z,3.80
2018-12-14T09:27:33.719Z,3.80
2018-12-14T09:29:36.658Z,3.80
2018-12-14T09:31:40.683Z,3.90
2018-12-14T09:33:44.542Z,3.80
2018-12-14T09:35:47.437Z,3.80
2018-12-14T09:37:50.531Z,3.80
2018-12-14T09:39:53.402Z,3.90
2018-12-14T09:41:56.340Z,3.90
2018-12-14T09:43:59.483Z,3.90
2018-12-14T09:46:02.439Z,3.90
2018-12-14T09:48:05.386Z,3.90
2018-12-14T09:50:08.416Z,3.90
2018-12-14T09:52:11.295Z,3.90
2018-12-14T09:54:14.162Z,4.00
2018-12-14T09:56:17.163Z,3.90
2018-12-14T09:58:20.049Z,4.00
2018-12-14T10:00:22.921Z,4.00
2018-12-14T10:02:25.843Z,4.00
2018-12-14T10:04:28.741Z,4.00
2018-12-14T10:06:31.610Z,4.00
2018-12-14T10:08:34.665Z,4.00
2018-12-14T10:10:37.537Z,4.00
2018-12-14T10:12:40.515Z,4.10
2018-12-14T10:14:43.503Z,4.10
2018-12-14T10:16:46.478Z,4.10
2018-12-14T10:18:50.857Z,4.10
2018-12-14T10:20:53.747Z,4.10
2018-12-14T10:22:56.621Z,4.20
2018-12-14T10:25:00.166Z,4.20
2018-12-14T10:27:03.272Z,4.20
2018-12-14T10:29:06.935Z,4.30
2018-12-14T10:31:10.448Z,4.30
2018-12-14T10:33:14.091Z,4.30
2018-12-14T10:35:17.127Z,4.30
2018-12-14T10:37:20.771Z,4.20
2018-12-14T10:39:24.406Z,4.30
2018-12-14T10:41:28.183Z,4.30
2018-12-14T10:43:30.978Z,4.30
2018-12-14T10:45:34.035Z,4.30
2018-12-14T10:47:36.908Z,4.30
2018-12-14T10:49:39.778Z,4.30
2018-12-14T10:51:42.699Z,4.30
2018-12-14T10:53:45.563Z,4.30
2018-12-14T10:55:48.473Z,4.40
2018-12-14T10:57:51.422Z,4.40
2018-12-14T10:59:54.299Z,4.30
2018-12-14T11:01:57.184Z,4.40
2018-12-14T11:04:00.085Z,4.40
2018-12-14T11:06:03.007Z,4.40
2018-12-14T11:08:05.959Z,4.40
2018-12-14T11:10:08.850Z,4.40
2018-12-14T11:12:11.723Z,4.40
2018-12-14T11:14:14.686Z,4.40
2018-12-14T11:16:17.605Z,4.40
2018-12-14T11:18:20.590Z,4.40
2018-12-14T11:20:24.247Z,4.40
2018-12-14T11:22:27.737Z,4.40
2018-12-14T11:24:31.365Z,4.40
2018-12-14T11:26:34.256Z,4.40
2018-12-14T11:28:37.267Z,4.40
2018-12-14T11:30:40.886Z,4.40
2018-12-14T11:32:43.820Z,4.40
2018-12-14T11:34:46.736Z,4.40
2018-12-14T11:36:50.524Z,4.40
2018-12-14T11:38:53.423Z,4.40
2018-12-14T11:40:56.298Z,4.40
2018-12-14T11:42:59.178Z,4.40
2018-12-14T11:45:02.082Z,4.40
2018-12-14T11:47:04.958Z,4.40
2018-12-14T11:49:08.215Z,4.40
2018-12-14T11:51:11.129Z,4.40
2018-12-14T11:53:14.015Z,4.40
2018-12-14T11:55:16.902Z,4.40
2018-12-14T11:57:19.774Z,4.40
2018-12-14T11:59:22.727Z,4.40
2018-12-14T12:01:26.354Z,4.40
2018-12-14T12:03:29.315Z,4.40
2018-12-14T12:05:32.934Z,4.40
2018-12-14T12:07:35.818Z,4.40
2018-12-14T12:09:38.711Z,4.40
2018-12-14T12:11:41.591Z,4.40
2018-12-14T12:13:44.504Z,4.40
2018-12-14T12:15:47.376Z,4.40
2018-12-14T12:17:50.271Z,4.40
2018-12-14T12:19:53.155Z,4.40
2018-12-14T12:21:56.806Z,4.40
2018-12-14T12:23:59.732Z,4.40
2018-12-14T12:26:04.273Z,4.40
2018-12-14T12:28:08.497Z,4.30
2018-12-14T12:30:11.431Z,4.40
2018-12-14T12:32:14.306Z,4.40
2018-12-14T12:34:17.303Z,4.30
2018-12-14T12:36:20.184Z,4.30
2018-12-14T12:38:23.097Z,4.30
2018-12-14T12:40:26.766Z,4.40
2018-12-14T12:42:30.527Z,4.30
2018-12-14T12:44:33.869Z,4.40
2018-12-14T12:46:37.162Z,4.30
2018-12-14T12:48:40.915Z,4.30
2018-12-14T12:50:43.812Z,4.30
2018-12-14T12:52:46.694Z,4.30
2018-12-14T12:54:49.589Z,4.30
2018-12-14T12:56:52.458Z,4.30
2018-12-14T12:58:55.334Z,4.30
2018-12-14T13:00:58.251Z,4.30
2018-12-14T13:03:01.330Z,4.30
2018-12-14T13:05:04.991Z,4.30
2018-12-14T13:07:07.904Z,4.30
2018-12-14T13:09:10.779Z,4.30
2018-12-14T13:11:13.688Z,4.30
2018-12-14T13:13:17.331Z,4.30
2018-12-14T13:15:20.218Z,4.30
2018-12-14T13:17:23.086Z,4.30
2018-12-14T13:19:25.967Z,4.30
2018-12-14T13:21:28.863Z,4.30
2018-12-14T13:23:31.766Z,4.30
2018-12-14T13:25:34.746Z,4.30
2018-12-14T13:27:39.627Z,4.30
2018-12-14T13:29:43.339Z,4.30
2018-12-14T13:31:46.253Z,4.30
2018-12-14T13:33:49.132Z,4.30
2018-12-14T13:35:52.046Z,4.30
2018-12-14T13:37:55.000Z,4.30
2018-12-14T13:39:57.887Z,4.30
2018-12-14T13:42:00.791Z,4.30
2018-12-14T13:44:04.423Z,4.20
2018-12-14T13:46:07.325Z,4.20
2018-12-14T13:48:10.212Z,4.20
2018-12-14T13:50:13.119Z,4.20
2018-12-14T13:52:15.997Z,4.20
2018-12-14T13:54:19.754Z,4.20
2018-12-14T13:56:22.663Z,4.20
2018-12-14T13:58:25.535Z,4.20
2018-12-14T14:00:28.408Z,4.20
2018-12-14T14:02:31.314Z,4.20
2018-12-14T14:04:35.976Z,4.20
2018-12-14T14:06:37.886Z,4.20
2018-12-14T14:08:42.271Z,4.20
2018-12-14T14:10:45.286Z,4.20
2018-12-14T14:12:48.272Z,4.20
2018-12-14T14:14:53.136Z,4.20
2018-12-14T14:16:56.040Z,4.20
2018-12-14T14:18:58.915Z,4.20
2018-12-14T14:21:01.843Z,4.20
2018-12-14T14:23:06.184Z,4.20
2018-12-14T14:25:09.821Z,4.20
2018-12-14T14:27:12.775Z,4.20
2018-12-14T14:29:17.043Z,4.20
2018-12-14T14:31:19.933Z,4.20
2018-12-14T14:33:22.811Z,4.20
2018-12-14T14:35:25.679Z,4.20
2018-12-14T14:37:28.573Z,4.20
2018-12-14T14:39:32.242Z,4.10
2018-12-14T14:41:35.151Z,4.10
2018-12-14T14:43:38.014Z,4.20
2018-12-14T14:45:40.911Z,4.10
2018-12-14T14:47:43.803Z,4.10
2018-12-14T14:49:47.484Z,4.10
2018-12-14T14:51:51.231Z,4.10
2018-12-14T14:53:54.309Z,4.10
2018-12-14T14:55:57.933Z,4.10
2018-12-14T14:58:00.819Z,4.10
2018-12-14T15:00:03.704Z,4.10
2018-12-14T15:02:06.599Z,4.10
2018-12-14T15:04:09.471Z,4.10
2018-12-14T15:06:12.358Z,4.10
2018-12-14T15:08:15.259Z,4.10
2018-12-14T15:10:18.139Z,4.10
2018-12-14T15:12:22.562Z,4.00
2018-12-14T15:14:25.426Z,4.10
2018-12-14T15:16:28.333Z,4.00
2018-12-14T15:18:31.309Z,4.10
2018-12-14T15:20:35.696Z,4.00
2018-12-14T15:22:38.763Z,4.00
2018-12-14T15:24:41.849Z,4.00
2018-12-14T15:26:44.731Z,4.00
2018-12-14T15:28:47.649Z,4.00
2018-12-14T15:30:50.646Z,4.00
2018-12-14T15:32:53.537Z,4.00
2018-12-14T15:34:57.230Z,4.00
2018-12-14T15:37:00.210Z,4.00
2018-12-14T15:39:03.870Z,4.00
2018-12-14T15:41:06.902Z,4.00
2018-12-14T15:43:10.573Z,4.00
2018-12-14T15:45:13.978Z,4.00
2018-12-14T15:47:16.850Z,3.90
2018-12-14T15:49:19.738Z,3.90
2018-12-14T15:51:22.653Z,3.90
2018-12-14T15:53:26.304Z,3.90
2018-12-14T15:55:29.182Z,3.90
2018-12-14T15:57:32.061Z,3.90
2018-12-14T15:59:34.943Z,3.90
2018-12-14T16:01:37.843Z,3.90
2018-12-14T16:03:40.788Z,3.90
2018-12-14T16:05:43.688Z,3.90
2018-12-14T16:07:46.567Z,3.90
2018-12-14T16:09:49.839Z,3.90
2018-12-14T16:11:52.715Z,3.80
2018-12-14T16:13:55.619Z,3.80
2018-12-14T16:15:58.518Z,3.80
2018-12-14T16:18:01.579Z,3.80
2018-12-14T16:20:04.447Z,3.80
2018-12-14T16:22:08.146Z,3.80
2018-12-14T16:24:11.039Z,3.90
2018-12-14T16:26:13.916Z,3.90
2018-12-14T16:28:16.807Z,3.90
2018-12-14T16:30:19.698Z,3.90
2018-12-14T16:32:22.586Z,4.00
2018-12-14T16:34:25.566Z,4.00
2018-12-14T16:36:28.776Z,4.00
2018-12-14T16:38:32.783Z,4.10
2018-12-14T16:40:37.179Z,4.10
2018-12-14T16:42:40.087Z,4.10
2018-12-14T16:44:43.741Z,4.10
2018-12-14T16:46:46.626Z,4.10
2018-12-14T16:48:49.513Z,4.10
2018-12-14T16:50:52.391Z,4.10
2018-12-14T16:52:55.275Z,4.10
2018-12-14T16:54:58.189Z,4.10
2018-12-14T16:57:01.830Z,4.20
2018-12-14T16:59:04.722Z,4.10
2018-12-14T17:01:07.592Z,4.20
2018-12-14T17:03:11.464Z,4.20
2018-12-14T17:05:15.125Z,4.20
2018-12-14T17:07:18.012Z,4.20
2018-12-14T17:09:21.000Z,4.20
2018-12-14T17:11:23.880Z,4.10
2018-12-14T17:13:27.808Z,4.10
2018-12-14T17:15:33.427Z,4.10
2018-12-14T17:17:33.580Z,4.10
2018-12-14T17:19:36.518Z,4.10
2018-12-14T17:21:39.408Z,4.10
2018-12-14T17:23:42.341Z,4.00
2018-12-14T17:25:45.970Z,4.00
2018-12-14T17:27:48.845Z,4.00
2018-12-14T17:29:51.734Z,4.00
2018-12-14T17:31:54.614Z,4.00
2018-12-14T17:33:57.506Z,4.00
2018-12-14T17:36:01.924Z,3.90
2018-12-14T17:38:04.906Z,3.90
2018-12-14T17:40:07.831Z,3.90
2018-12-14T17:42:10.712Z,3.90
2018-12-14T17:44:13.728Z,3.80
2018-12-14T17:46:16.610Z,3.80
2018-12-14T17:48:20.166Z,3.80
2018-12-14T17:50:23.066Z,3.80
2018-12-14T17:52:25.942Z,3.80
2018-12-14T17:54:28.810Z,3.80
2018-12-14T17:56:32.170Z,3.70
2018-12-14T17:58:36.471Z,3.80
2018-12-14T18:00:39.366Z,3.70
2018-12-14T18:02:43.058Z,3.70
2018-12-14T18:04:45.931Z,3.70
2018-12-14T18:06:48.827Z,3.70
2018-12-14T18:08:52.470Z,3.60
2018-12-14T18:10:55.490Z,3.70
2018-12-14T18:12:58.383Z,3.70
2018-12-14T18:15:01.279Z,3.60
2018-12-14T18:17:04.967Z,3.70
2018-12-14T18:19:07.844Z,3.60
2018-12-14T18:21:11.165Z,3.60
2018-12-14T18:23:14.077Z,3.70
2018-12-14T18:25:16.943Z,3.60
2018-12-14T18:27:19.949Z,3.70
2018-12-14T18:29:23.327Z,3.60
2018-12-14T18:31:26.211Z,3.60
2018-12-14T18:33:29.645Z,3.60
2018-12-14T18:35:32.826Z,3.60
2018-12-14T18:37:35.748Z,3.60
2018-12-14T18:39:39.372Z,3.60
2018-12-14T18:41:42.296Z,3.60
2018-12-14T18:43:45.167Z,3.60
2018-12-14T18:45:53.154Z,3.60
2018-12-14T18:47:51.074Z,3.50
2018-12-14T18:49:53.929Z,3.60
2018-12-14T18:51:56.854Z,3.60
2018-12-14T18:54:00.491Z,3.60
2018-12-14T18:56:03.543Z,3.50
2018-12-14T18:58:07.150Z,3.50
2018-12-14T19:00:11.579Z,3.50
2018-12-14T19:02:14.991Z,3.50
2018-12-14T19:04:19.406Z,3.50
2018-12-14T19:06:22.592Z,3.50
2018-12-14T19:08:27.128Z,3.50
2018-12-14T19:10:31.425Z,3.50
2018-12-14T19:12:35.089Z,3.50
2018-12-14T19:14:37.981Z,3.50
2018-12-14T19:16:40.865Z,3.50
2018-12-14T19:18:43.770Z,3.50
2018-12-14T19:20:46.695Z,3.40
2018-12-14T19:22:50.150Z,3.50
2018-12-14T19:24:53.024Z,3.40
2018-12-14T19:26:56.011Z,3.40
2018-12-14T19:28:58.901Z,3.40
2018-12-14T19:31:01.779Z,3.40
2018-12-14T19:33:04.755Z,3.40
2018-12-14T19:35:07.630Z,3.40
2018-12-14T19:37:10.515Z,3.40
2018-12-14T19:39:13.432Z,3.40
2018-12-14T19:41:16.413Z,3.40
2018-12-14T19:43:20.063Z,3.40
2018-12-14T19:45:24.152Z,3.40
2018-12-14T19:47:27.046Z,3.40
2018-12-14T19:49:29.922Z,3.30
2018-12-14T19:51:33.040Z,3.30
2018-12-14T19:53:36.015Z,3.30
2018-12-14T19:55:38.889Z,3.30
2018-12-14T19:57:41.786Z,3.30
2018-12-14T19:59:45.434Z,3.30
2018-12-14T20:01:48.751Z,3.30
2018-12-14T20:03:51.711Z,3.30
2018-12-14T20:05:54.598Z,3.30
2018-12-14T20:07:57.474Z,3.30
2018-12-14T20:10:00.409Z,3.30
2018-12-14T20:12:04.811Z,3.30
2018-12-14T20:14:08.940Z,3.30
2018-12-14T20:16:12.956Z,3.30
2018-12-14T20:18:14.450Z,3.30
2018-12-14T20:20:18.178Z,3.30
2018-12-14T20:22:21.083Z,3.30
2018-12-14T20:24:24.744Z,3.30
2018-12-14T20:26:27.623Z,3.30
2018-12-14T20:28:30.519Z,3.30
2018-12-14T20:30:34.906Z,3.30
2018-12-14T20:32:37.812Z,3.30
2018-12-14T20:34:40.715Z,3.30
2018-12-14T20:36:43.671Z,3.40
2018-12-14T20:38:46.697Z,3.30
2018-12-14T20:40:49.641Z,3.30
2018-12-14T20:42:52.530Z,3.40
2018-12-14T20:44:55.510Z,3.40
2018-12-14T20:46:58.498Z,3.40
2018-12-14T20:49:01.382Z,3.40
2018-12-14T20:51:05.791Z,3.40
2018-12-14T20:53:08.984Z,3.40
2018-12-14T20:55:14.217Z,3.40
2018-12-14T20:57:17.089Z,3.40
2018-12-14T20:59:19.993Z,3.40
2018-12-14T21:01:24.051Z,3.40
2018-12-14T21:03:27.790Z,3.30
2018-12-14T21:05:30.876Z,3.40
2018-12-14T21:07:34.635Z,3.40
2018-12-14T21:09:38.235Z,3.40
2018-12-14T21:11:41.155Z,3.40
2018-12-14T21:13:44.050Z,3.40
2018-12-14T21:15:46.910Z,3.40
2018-12-14T21:17:49.893Z,3.40
2018-12-14T21:19:52.754Z,3.40
2018-12-14T21:21:55.623Z,3.30
2018-12-14T21:23:58.762Z,3.40
2018-12-14T21:26:02.477Z,3.30
2018-12-14T21:28:06.114Z,3.40
2018-12-14T21:30:09.000Z,3.40
2018-12-14T21:32:11.870Z,3.40
2018-12-14T21:34:16.972Z,3.30
2018-12-14T21:36:19.623Z,3.30
2018-12-14T21:38:22.517Z,3.40
2018-12-14T21:40:26.202Z,3.30
2018-12-14T21:42:30.095Z,3.40
2018-12-14T21:44:33.433Z,3.30
2018-12-14T21:46:36.928Z,3.30
2018-12-14T21:48:40.407Z,3.40
2018-12-14T21:50:44.056Z,3.40
2018-12-14T21:52:47.194Z,3.30
2018-12-14T21:54:50.964Z,3.40
2018-12-14T21:56:53.838Z,3.40
2018-12-14T21:58:56.754Z,3.40
2018-12-14T22:01:00.432Z,3.40
2018-12-14T22:03:03.307Z,3.40
2018-12-14T22:05:06.213Z,3.40
2018-12-14T22:07:10.085Z,3.40
2018-12-14T22:09:12.961Z,3.40
2018-12-14T22:11:16.059Z,3.40
2018-12-14T22:13:19.038Z,3.40
2018-12-14T22:15:21.919Z,3.40
2018-12-14T22:17:24.819Z,3.40
2018-12-14T22:19:27.886Z,3.40
2018-12-14T22:21:30.753Z,3.40
2018-12-14T22:23:33.649Z,3.40
2018-12-14T22:25:36.740Z,3.40
2018-12-14T22:27:39.602Z,3.40
2018-12-14T22:29:42.491Z,3.40
2018-12-14T22:31:45.408Z,3.40
2018-12-14T22:33:48.359Z,3.40
2018-12-14T22:35:52.033Z,3.40
2018-12-14T22:37:54.923Z,3.40
2018-12-14T22:39:57.806Z,3.40
2018-12-14T22:42:00.680Z,3.40
2018-12-14T22:44:03.574Z,3.40
2018-12-14T22:46:06.457Z,3.40
2018-12-14T22:48:09.341Z,3.40
2018-12-14T22:50:12.431Z,3.40
2018-12-14T22:52:15.322Z,3.40
2018-12-14T22:54:19.797Z,3.40
2018-12-14T22:56:22.846Z,3.40
2018-12-14T22:58:26.479Z,3.40
2018-12-14T23:00:29.386Z,3.40
2018-12-14T23:02:32.369Z,3.40
2018-12-14T23:04:35.243Z,3.40
2018-12-14T23:06:38.139Z,3.40
2018-12-14T23:08:41.318Z,3.40
2018-12-14T23:10:44.210Z,3.40
2018-12-14T23:12:47.090Z,3.40
2018-12-14T23:14:50.171Z,3.40
2018-12-14T23:16:54.583Z,3.40
2018-12-14T23:18:57.602Z,3.40
2018-12-14T23:21:01.251Z,3.30
2018-12-14T23:23:04.146Z,3.30
2018-12-14T23:25:07.073Z,3.30
2018-12-14T23:27:10.763Z,3.30
2018-12-14T23:29:14.387Z,3.30
2018-12-14T23:31:17.318Z,3.30
2018-12-14T23:33:21.107Z,3.40
2018-12-14T23:35:24.808Z,3.30
2018-12-14T23:37:27.685Z,3.30
2018-12-14T23:39:32.235Z,3.30
2018-12-14T23:41:35.867Z,3.30
2018-12-14T23:43:39.350Z,3.30
2018-12-14T23:45:42.250Z,3.40
2018-12-14T23:47:45.143Z,3.40
2018-12-14T23:49:48.071Z,3.40
2018-12-14T23:51:51.029Z,3.40
2018-12-14T23:53:53.910Z,3.40
2018-12-14T23:55:56.790Z,3.40
2018-12-14T23:57:59.776Z,3.40
